Have a Safe July 4th! 

Flight Track Log - Related Links

Times and Time Zones

All times are in EST time to prevent confusion due to time zone crossing. See the UCA3596 flight status page for this flight to view local times or setup timezone preferences in your user account.

Time Position Orientation Groundspeed Altitude Reporting Facility
EST Latitude Longitude Course Direction KTS MPH feet Rate Location/Type
Wed 01:43:00 PM 41.0988 -76.5007 19° North  Level Estimated
Wed 01:44:00 PM 41.1847 -76.4610 19° North  Level Estimated
Wed 01:45:00 PM 41.2706 -76.4213 19° North  Level Estimated
Wed 01:46:00 PM 41.3564 -76.3814 19° North  Level Estimated
Wed 01:47:00 PM 41.4423 -76.3414 19° North  Level Estimated
Wed 01:48:00 PM 41.5281 -76.3014 19° North  Level Estimated
Wed 01:49:00 PM 41.6139 -76.2612 19° North  Level Estimated
Wed 01:50:00 PM 41.6997 -76.2209 19° North  Level Estimated
Wed 01:51:00 PM 41.7855 -76.1805 19° North  Level Estimated
Wed 01:52:00 PM 41.8713 -76.1400 19° North  Level Estimated
Wed 01:53:00 PM 41.9571 -76.0993 19° North  Level Estimated
Wed 01:54:00 PM 42.0197 -76.0696 19° North  Level Estimated
Wed 01:55:00 PM 42.0824 -76.0398 19° North  Level Estimated
Wed 01:56:00 PM 42.1450 -76.0099 19° North  Level Estimated
Wed 01:57:00 PM 42.2076 -75.9800 19° North  Level Estimated
Wed 01:58:00 PM 42.2084 -75.9796 20° North  Level Estimated
Wed 01:59:00 PM 42.2084 -75.9796 35° Northeast  Level Estimated
Wed 02:00:00 PM 42.2084 -75.9796 35° Northeast  Level Estimated
Wed 02:01:00 PM 42.2084 -75.9796 35° Northeast  Level Estimated
Wed 02:02:00 PM 42.2084 -75.9796 35° Northeast  Level Estimated
Wed 02:03:00 PM 42.2084 -75.9796 35° Northeast  Level Estimated
Wed 02:04:00 PM 42.2084 -75.9796 35° Northeast  Level Estimated
Wed 02:05:00 PM 42.2084 -75.9796 35° Northeast  Level Estimated
Wed 02:06:00 PM 42.2084 -75.9796 35° Northeast  Level Estimated
Wed 02:07:00 PM 42.2084 -75.9796 35° Northeast  Level Estimated
Wed 02:08:00 PM 42.2084 -75.9796 35° Northeast  Level Estimated
Wed 02:09:00 PM 42.2084 -75.9796 35° Northeast  Level Estimated
Wed 02:10:00 PM 42.2084 -75.9796 35° Northeast  Level Estimated
Wed 02:11:00 PM 42.2084 -75.9796 35° Northeast  Level Estimated
Wed 02:12:00 PM 42.2084 -75.9796 35° Northeast  Level Estimated

Login

Don't have an account? Register now (free) for customized features, flight alerts, and more!